Cranbrook Airport
CYXC : now visible

Airfield :











YOU CAN JOIN US ON...

 
LOGIN :

Register | Disclaimer

   EN    FR    IT 

 









Legend :    VFR   Marginal VFR   IFR   Intensive IFR   Very Intensive IFR
Visi :
Ceiling :
>= 8 km
>= 3000ft
5 to 8 km
1000 to 3000 ft
1500m to 5 km
500 to 1000 ft
800 to 1500m
200 to 500 ft
< 800m
< 200 ft
Symbols :   Thunderstorms  Fog  Heavy snow  Heavy precipitations  Wind > 20 kt






- Airport Elevation : 3082 ft
- IATA code : YXC


CYXC - Cranbrook

CURRENT METAR :
  • 240000Z 06003KT 3SM -SN OVC014 M02/M03 A2995 RMK SC8 SLP182

EXPIRED METARs :
  • 232300Z 10004KT 060V130 3SM -SN OVC014 M02/M03 A2996 RMK SC8 SLP185
  • 232243Z 11004KT 050V140 3SM -SN OVC013 M02/M03 A2996 RMK SC8 SLP186
  • 232200Z 13006KT 090V150 2SM -SN OVC010 M02/M03 A2999 RMK SC8 SLP195

TAF TAF CYXC
Valid from the 23 at 19:00 until the 24 at 07:00 UTC


231842Z 2319/2407 VRB03KT 1SM -SN OVC006
TEMPO 2319/2405 3SM -SN SCT006 OVC012
BECMG 2319/2321 08007KT
FM240500 03007KT 6SM -SN SCT020 OVC040
TEMPO 2405/2407 2SM -SN BKN020 RMK NXT FCST BY 240100Z
CZVR FIR / North America



MET'MAP, your aeronautical weather chart ! - Copyright ORBIFLY December 2007 - Disclaimer

ORBIFLY MET'MAP TEAM :

Programming & Development : Alexandra Zaïnal
Concept & original design : Baudouin d'Aumeries
Assistance for programming : Marc-Olivier Méhu
Technical & hardware support : Manuel Goepfert

Contact : metmap@orbifly.com




SOURCES & CREDITS :

   NOAA       Earth
Advisory